Latest Weather Observations for Halls Creek

IDW60801

Issued at 3:35 pm WST Friday 1 August 2014 (issued every 30 minutes, with the page automatically refreshed every 10 minutes)

About weather observations | Map of weather stations | Latest weather observations for WA | Other Formats
Station Details ID: 002012 Name: HALLS CREEK AIRPORT Lat: -18.23 Lon: 127.66 Height: 422.0 m
Data from the previous 72 hours. | See also: Recent months at Halls Creek
Date/Time
WST
Temp
°C
App
Temp
°C
Dew
Point
Rel
Hum
%
Delta-T
°C
Wind Press
QNH
hPa
Press
MSL
hPa
Rain
since 9 am
mm
Dir
 
Spd
km/h
Gust
km/h
Spd
kts
Gust
kts
01/03:30pm 30.3 26.9 -1.8 12 15.2 ESE 6 13 3 7 1015.5 - 0.0
01/03:00pm 30.1 27.0 0.3 14 14.6 E 6 15 3 8 1015.4 1013.5 0.0
01/02:30pm 30.0 25.8 -3.7 11 15.4 E 9 22 5 12 1015.4 - 0.0
01/02:00pm 29.7 25.5 -3.6 11 15.2 E 9 19 5 10 1015.7 - 0.0
01/01:30pm 30.1 25.6 -3.4 11 15.4 ESE 11 20 6 11 1015.9 - 0.0
01/01:00pm 29.7 25.6 -3.1 11 15.1 ESE 9 20 5 11 1016.3 - 0.0
01/12:30pm 29.4 24.9 -3.0 12 14.9 ENE 11 26 6 14 1016.8 - 0.0
01/12:00pm 28.6 23.7 -3.8 12 14.6 E 13 28 7 15 1017.3 1015.5 0.0
01/11:30am 28.7 22.9 -4.5 11 14.8 ESE 17 26 9 14 1018.0 - 0.0
01/11:00am 27.5 22.1 -4.4 12 14.1 ESE 15 32 8 17 1018.6 - 0.0
01/10:30am 26.8 21.0 -4.4 12 13.7 ESE 17 32 9 17 1019.0 - 0.0
01/10:00am 27.1 21.8 -3.6 13 13.7 SE 15 30 8 16 1019.5 - 0.0
01/09:30am 25.5 19.8 -4.0 14 12.9 SE 17 28 9 15 1019.9 - 0.0
01/09:00am 25.0 19.8 -2.9 15 12.4 SE 15 26 8 14 1020.1 1018.2 0.0
01/08:30am 24.0 19.6 -2.2 17 11.7 ESE 11 20 6 11 1019.9 - -
01/08:00am 22.2 18.3 -1.2 21 10.5 ESE 9 19 5 10 1019.7 - -
01/07:30am 21.0 17.2 -0.6 23 9.7 SE 9 17 5 9 1019.3 - -
01/07:00am 18.7 16.1 1.2 31 8.0 ESE 4 7 2 4 1019.0 - -
01/06:30am 16.7 14.2 1.4 35 6.9 ESE 4 7 2 4 1018.7 - -
01/06:00am 15.2 12.9 2.8 43 5.7 E 4 6 2 3 1018.3 1016.4 -
01/05:30am 16.4 13.4 0.9 35 6.9 E 6 9 3 5 1018.2 - -
01/05:00am 16.1 14.1 2.1 39 6.4 E 2 6 1 3 1018.1 - -
01/04:30am 16.1 14.3 3.3 42 6.0 SSE 2 4 1 2 1017.9 - -
01/04:00am 17.2 15.3 2.6 37 6.8 ENE 2 6 1 3 1017.4 - -
01/03:30am 17.1 15.1 2.4 37 6.8 ENE 2 4 1 2 1017.3 - -
01/03:00am 16.9 14.9 2.1 37 6.8 ESE 2 4 1 2 1017.4 1015.6 -
01/02:30am 17.3 15.0 2.7 37 6.8 E 4 4 2 2 1017.2 - -
01/02:00am 17.7 15.9 3.4 38 6.8 SE 2 4 1 2 1017.3 - -
01/01:30am 18.3 15.9 2.2 34 7.5 ESE 4 6 2 3 1017.2 - -
01/01:00am 19.0 16.5 1.7 31 8.0 SE 4 9 2 5 1017.3 - -
01/12:30am 20.1 17.1 1.0 28 8.8 SE 6 11 3 6 1017.4 - -
01/12:00am 20.1 17.0 0.3 26 9.0 SE 6 13 3 7 1017.7 1015.8 -
 
Date/Time
WST
Temp
°C
App
Temp
°C
Dew
Point
Rel
Hum
%
Delta-T
°C
Wind Press
QNH
hPa
Press
MSL
hPa
Rain
since 9 am
mm
Dir
 
Spd
km/h
Gust
km/h
Spd
kts
Gust
kts
31/11:30pm 19.3 17.1 3.5 35 7.6 SSE 4 7 2 4 1017.7 - -
31/11:00pm 19.7 17.3 2.3 31 8.2 S 4 6 2 3 1017.7 - -
31/10:30pm 20.2 18.3 2.8 31 8.3 E 2 4 1 2 1017.6 - -
31/10:00pm 20.3 18.3 4.2 34 7.9 ESE 4 4 2 2 1017.6 - -
31/09:30pm 20.7 19.0 4.0 33 8.2 SE 2 6 1 3 1017.7 - -
31/09:00pm 21.0 19.1 2.6 29 8.8 ESE 2 4 1 2 1017.6 1016.1 -
31/08:30pm 21.5 19.8 4.1 32 8.6 SE 2 4 1 2 1017.6 - -
31/08:00pm 22.3 20.3 4.2 30 9.0 SSE 4 7 2 4 1017.4 - -
31/07:30pm 23.2 20.1 1.3 23 10.4 SSE 7 11 4 6 1017.2 - -
31/07:00pm 22.6 19.9 2.9 27 9.6 S 6 9 3 5 1016.9 - -
31/06:30pm 23.2 21.2 4.3 29 9.5 S 4 6 2 3 1016.7 - -
31/06:00pm 24.3 21.7 3.4 25 10.4 SSE 6 9 3 5 1016.2 1014.8 -
31/05:30pm 25.4 23.3 4.1 25 10.8 SSE 4 6 2 3 1016.0 - -
31/05:00pm 27.3 24.8 3.8 22 12.0 SSE 6 11 3 6 1015.9 - -
31/04:30pm 28.8 25.0 -0.8 14 14.1 SE 9 19 5 10 1015.7 - -
31/04:00pm 29.6 26.1 -1.4 13 14.7 E 7 15 4 8 1015.6 - -
31/03:30pm 30.0 26.5 -1.7 12 15.0 E 7 19 4 10 1015.5 - -
31/03:00pm 30.6 27.0 -2.0 12 15.4 SSE 7 19 4 10 1015.5 1014.0 0.0
31/02:30pm 30.5 26.9 -2.3 12 15.4 SE 7 15 4 8 1015.8 - -
31/02:00pm 29.8 26.2 -1.8 13 14.9 E 7 22 4 12 1016.0 - -
31/01:30pm 29.8 25.7 -2.8 12 15.1 ENE 9 19 5 10 1016.3 - -
31/01:00pm 29.5 26.2 -1.3 13 14.6 SE 6 15 3 8 1016.9 - -
31/12:30pm 29.6 26.1 -1.0 13 14.6 E 7 20 4 11 1017.6 - -
31/12:00pm 29.9 25.9 -2.1 12 15.0 ESE 9 19 5 10 1017.9 1016.4 -
31/11:30am 28.9 25.2 -2.5 13 14.5 E 7 19 4 10 1018.5 - 0.0
31/11:00am 28.4 24.3 -3.4 12 14.4 E 9 19 5 10 1018.9 - 0.0
31/10:30am 27.9 23.9 -1.9 14 13.8 E 9 19 5 10 1019.2 - 0.0
31/10:00am 26.4 21.5 -3.0 14 13.2 ESE 13 22 7 12 1019.5 - 0.0
31/09:30am 25.8 21.8 -2.2 15 12.7 E 9 17 5 9 1019.8 - 0.0
31/09:00am 24.9 21.0 -1.8 17 12.1 E 9 19 5 10 1020.1 1018.6 0.0
31/08:30am 23.7 20.2 -1.6 18 11.4 ESE 7 19 4 10 1019.9 - 0.0
31/08:00am 21.9 18.7 -0.7 22 10.2 ESE 6 13 3 7 1019.9 - 0.0
31/07:30am 19.8 16.7 0.4 27 8.8 ESE 6 9 3 5 1019.8 - 0.0
31/07:00am 18.3 15.7 1.2 31 7.8 ESE 4 6 2 3 1019.6 - 0.0
31/06:30am 16.2 14.3 2.8 40 6.2 E 2 4 1 2 1019.4 - 0.0
31/06:00am 14.8 12.8 2.2 42 5.7 ENE 2 4 1 2 1019.1 1017.7 0.0
31/05:30am 14.6 12.3 2.5 44 5.5 E 4 6 2 3 1018.9 - 0.0
31/05:00am 15.0 13.0 2.2 42 5.8 E 2 4 1 2 1018.7 - 0.0
31/04:30am 15.0 12.7 2.5 43 5.7 E 4 6 2 3 1018.5 - 0.0
31/04:00am 14.9 13.1 3.2 45 5.4 E 2 4 1 2 1018.3 - 0.0
31/03:30am 15.1 13.4 3.8 46 5.3 E 2 4 1 2 1018.1 - 0.0
31/03:00am 15.5 13.7 3.5 44 5.6 SSE 2 4 1 2 1018.0 1016.5 0.0
31/02:30am 15.7 13.4 2.7 41 6.0 S 4 4 2 2 1018.1 - 0.0
31/02:00am 17.0 15.1 2.6 38 6.7 E 2 4 1 2 1018.2 - 0.0
31/01:30am 17.0 15.3 1.6 35 7.0 CALM 0 2 0 1 1018.2 - 0.0
31/01:00am 16.6 15.1 3.1 40 6.3 CALM 0 2 0 1 1018.4 - 0.0
31/12:30am 17.4 15.7 4.1 41 6.4 N 2 2 1 1 1018.5 - 0.0
31/12:00am 18.6 16.3 2.7 34 7.5 NNE 4 4 2 2 1018.5 1017.1 0.0
 
Date/Time
WST
Temp
°C
App
Temp
°C
Dew
Point
Rel
Hum
%
Delta-T
°C
Wind Press
QNH
hPa
Press
MSL
hPa
Rain
since 9 am
mm
Dir
 
Spd
km/h
Gust
km/h
Spd
kts
Gust
kts
30/11:30pm 19.4 16.8 1.1 29 8.4 N 4 4 2 2 1018.5 - 0.0
30/11:00pm 19.3 17.0 2.6 33 7.9 NNE 4 4 2 2 1018.5 - 0.0
30/10:30pm 20.1 17.5 1.0 28 8.8 N 4 6 2 3 1018.6 - 0.0
30/10:00pm 19.3 17.3 2.3 32 8.0 N 2 4 1 2 1018.6 - 0.0
30/09:30pm 19.9 18.0 2.6 31 8.2 E 2 2 1 1 1018.7 - 0.0
30/09:00pm 20.4 18.8 2.5 30 8.5 CALM 0 2 0 1 1018.6 1017.2 0.0
30/08:30pm 20.6 18.8 3.5 32 8.3 E 2 4 1 2 1018.6 - 0.0
30/08:00pm 20.8 18.7 4.1 33 8.2 E 4 6 2 3 1018.5 - 0.0
30/07:30pm 21.7 19.6 3.8 31 8.8 E 4 7 2 4 1018.5 - 0.0
30/07:00pm 22.1 20.0 3.9 30 9.0 E 4 6 2 3 1018.3 - 0.0
30/06:30pm 22.6 20.5 4.1 30 9.2 E 4 6 2 3 1017.9 - 0.0
30/06:00pm 23.7 22.2 5.1 30 9.5 ESE 2 4 1 2 1017.6 1016.1 0.0
30/05:30pm 25.4 22.9 1.8 21 11.5 E 4 7 2 4 1017.3 - 0.0
30/05:00pm 26.7 23.6 0.4 18 12.6 ESE 6 11 3 6 1017.1 - 0.0
30/04:30pm 28.3 25.3 0.5 16 13.5 E 6 15 3 8 1016.9 - 0.0
30/04:00pm 28.7 24.8 -1.5 14 14.2 E 9 17 5 9 1016.8 - 0.0
30/03:30pm 29.2 25.0 -0.7 14 14.3 ESE 11 20 6 11 1016.7 - 0.0
30/03:00pm 29.3 26.0 0.0 15 14.2 E 7 15 4 8 1016.7 1015.3 0.0
30/02:30pm 29.7 27.0 0.1 15 14.4 NNE 4 7 2 4 1016.6 - 0.0
30/02:00pm 29.8 26.0 -0.9 13 14.7 E 9 19 5 10 1016.7 - 0.0
30/01:30pm 29.5 26.6 1.3 16 14.0 ESE 6 13 3 7 1017.0 - 0.0
30/01:00pm 29.4 26.1 -0.2 14 14.3 ENE 7 17 4 9 1017.3 - 0.0
30/12:30pm 29.2 25.5 0.1 15 14.1 ESE 9 20 5 11 1018.0 - 0.0
30/12:00pm 29.5 25.7 -0.4 14 14.4 ESE 9 26 5 14 1018.5 1017.1 0.0
30/11:30am 28.6 24.5 -0.1 15 13.8 E 11 32 6 17 1019.2 - 0.0
30/11:00am 27.9 23.7 -1.0 15 13.6 E 11 24 6 13 1019.7 - 0.0
30/10:30am 27.4 22.4 -1.4 15 13.4 ESE 15 28 8 15 1020.4 - 0.0
30/10:00am 26.4 22.3 -0.4 17 12.6 E 11 19 6 10 1020.8 - 0.0
30/09:30am 25.3 20.7 -0.9 17 12.1 E 13 20 7 11 1021.3 - 0.0
30/09:00am 24.2 20.6 0.3 20 11.2 E 9 19 5 10 1021.5 1020.1 0.0
30/08:30am 22.9 19.7 0.6 23 10.4 E 7 15 4 8 1021.5 - 0.0
30/08:00am 21.4 18.2 0.9 25 9.5 ESE 7 13 4 7 1021.4 - 0.0
30/07:30am 19.7 16.8 1.6 30 8.4 ESE 6 9 3 5 1021.2 - 0.0
30/07:00am 18.2 16.3 2.6 35 7.3 ENE 2 6 1 3 1020.9 - 0.0
30/06:30am 16.0 13.6 1.9 38 6.4 N 4 4 2 2 1020.5 - 0.0
30/06:00am 15.5 13.1 2.0 40 6.1 NNE 4 4 2 2 1020.2 1018.8 0.0
30/05:30am 14.8 12.9 3.1 45 5.4 NE 2 4 1 2 1019.8 - 0.0
30/05:00am 14.9 13.0 2.9 44 5.5 ENE 2 4 1 2 1019.7 - 0.0
30/04:30am 15.4 13.5 3.1 43 5.7 ENE 2 2 1 1 1019.4 - 0.0
30/04:00am 15.8 13.6 3.4 43 5.8 SSE 4 4 2 2 1019.2 - 0.0
30/03:30am 16.1 14.4 3.8 44 5.8 SSE 2 4 1 2 1019.3 - 0.0
30/03:00am 16.4 14.4 2.5 39 6.4 NNW 2 4 1 2 1019.2 1017.8 0.0
30/02:30am 16.5 15.0 3.0 40 6.3 CALM 0 4 0 2 1019.1 - 0.0
30/02:00am 17.1 15.3 3.3 39 6.5 S 2 4 1 2 1019.1 - 0.0
30/01:30am 17.6 15.4 3.2 38 6.8 SE 4 6 2 3 1019.2 - 0.0
30/01:00am 18.7 15.9 1.9 32 7.8 SE 6 9 3 5 1019.3 - 0.0
30/12:30am 18.1 15.8 2.8 36 7.2 SE 4 7 2 4 1019.5 - 0.0
30/12:00am 18.4 15.7 2.6 35 7.4 SE 6 7 3 4 1019.5 1018.1 0.0
 
Date/Time
WST
Temp
°C
App
Temp
°C
Dew
Point
Rel
Hum
%
Delta-T
°C
Wind Press
QNH
hPa
Press
MSL
hPa
Rain
since 9 am
mm
Dir
 
Spd
km/h
Gust
km/h
Spd
kts
Gust
kts
29/11:30pm 19.0 16.3 2.7 33 7.7 ESE 6 9 3 5 1019.7 - 0.0
29/11:00pm 19.0 16.8 3.6 36 7.4 SE 4 7 2 4 1019.8 - 0.0
29/10:30pm 18.6 16.7 5.0 40 6.7 SSE 4 6 2 3 1019.8 - 0.0
29/10:00pm 20.0 17.3 2.8 32 8.2 SE 6 9 3 5 1019.8 - 0.0
29/09:30pm 20.8 18.7 4.1 33 8.2 ESE 4 6 2 3 1019.8 - 0.0
29/09:00pm 21.7 19.1 3.2 29 9.0 ESE 6 9 3 5 1019.7 1018.3 0.0
29/08:30pm 20.8 18.8 4.4 34 8.1 ESE 4 7 2 4 1019.7 - 0.0
29/08:00pm 21.2 19.2 4.5 33 8.3 SE 4 6 2 3 1019.6 - 0.0
29/07:30pm 21.8 19.8 4.6 32 8.6 SE 4 6 2 3 1019.3 - 0.0
29/07:00pm 22.4 21.1 5.9 34 8.5 ESE 2 4 1 2 1019.1 - 0.0
29/06:30pm 23.4 21.7 4.0 28 9.7 SE 2 4 1 2 1018.8 - 0.0
29/06:00pm 24.5 22.4 3.7 26 10.4 E 4 9 2 5 1018.5 1017.1 0.0
29/05:30pm 25.5 24.1 5.5 27 10.4 E 2 4 1 2 1018.2 - 0.0
29/05:00pm 27.2 24.9 2.6 20 12.3 ENE 4 7 2 4 1017.9 - 0.0
29/04:30pm 28.5 25.3 0.5 16 13.6 E 7 15 4 8 1017.7 - 0.0
29/04:00pm 29.1 26.0 1.5 17 13.7 E 7 13 4 7 1017.6 - 0.0

Other Formats:

Comma delimited format used in spreadsheet applications
http://www.bom.gov.au/fwo/IDW60801/IDW60801.94212.axf

JavaScript Object Notation format (JSON) in row-major order
http://www.bom.gov.au/fwo/IDW60801/IDW60801.94212.json